createdAt,value
2022-09-28T00:01:20.938Z,20.75
2022-09-28T00:03:50.691Z,20.74
2022-09-28T00:06:20.473Z,20.71
2022-09-28T00:08:50.339Z,20.67
2022-09-28T00:11:19.090Z,20.69
2022-09-28T00:13:51.604Z,20.65
2022-09-28T00:16:21.568Z,20.65
2022-09-28T00:18:51.493Z,20.61
2022-09-28T00:21:24.545Z,20.55
2022-09-28T00:24:12.648Z,20.52
2022-09-28T00:26:41.359Z,20.43
2022-09-28T00:29:17.950Z,20.35
2022-09-28T00:31:45.791Z,20.30
2022-09-28T00:34:13.405Z,20.26
2022-09-28T00:36:44.431Z,20.23
2022-09-28T00:39:14.929Z,20.24
2022-09-28T00:41:42.719Z,20.22
2022-09-28T00:44:38.925Z,20.21
2022-09-28T00:47:17.798Z,20.15
2022-09-28T00:50:31.194Z,20.14
2022-09-28T00:53:13.276Z,20.08
2022-09-28T00:55:48.778Z,20.07
2022-09-28T00:58:25.364Z,19.99
2022-09-28T01:00:55.471Z,19.99
2022-09-28T01:03:22.878Z,19.96
2022-09-28T01:05:51.882Z,19.95
2022-09-28T01:08:21.982Z,19.95
2022-09-28T01:10:50.003Z,19.94
2022-09-28T01:13:21.862Z,19.92
2022-09-28T01:16:23.610Z,19.90
2022-09-28T01:19:10.516Z,19.96
2022-09-28T01:22:19.489Z,19.99
2022-09-28T01:24:49.002Z,19.98
2022-09-28T01:27:25.259Z,19.96
2022-09-28T01:30:02.016Z,19.92
2022-09-28T01:32:55.357Z,19.88
2022-09-28T01:35:37.182Z,19.82
2022-09-28T01:38:14.910Z,19.77
2022-09-28T01:40:42.754Z,19.77
2022-09-28T01:43:16.242Z,19.73
2022-09-28T01:45:54.672Z,19.71
2022-09-28T01:48:30.371Z,19.67
2022-09-28T01:51:02.799Z,19.67
2022-09-28T01:53:40.509Z,19.66
2022-09-28T01:56:28.457Z,19.61
2022-09-28T01:59:06.680Z,19.59
2022-09-28T02:01:41.050Z,19.57
2022-09-28T02:04:17.157Z,19.56
2022-09-28T02:06:55.663Z,19.55
2022-09-28T02:09:33.036Z,19.52
2022-09-28T02:12:10.225Z,19.47
2022-09-28T02:14:40.756Z,19.44
2022-09-28T02:17:09.889Z,19.42
2022-09-28T02:19:37.752Z,19.42
2022-09-28T02:22:25.322Z,19.40
2022-09-28T02:25:01.658Z,19.40
2022-09-28T02:27:34.491Z,19.44
2022-09-28T02:30:03.122Z,19.49
2022-09-28T02:32:35.487Z,19.52
2022-09-28T02:35:02.995Z,19.57
2022-09-28T02:37:30.344Z,19.58
2022-09-28T02:39:57.526Z,19.54
2022-09-28T02:42:34.003Z,19.50
2022-09-28T02:45:28.678Z,19.47
2022-09-28T02:48:06.698Z,19.40
2022-09-28T02:50:33.988Z,19.37
2022-09-28T02:53:37.200Z,19.35
2022-09-28T02:56:29.210Z,19.34
2022-09-28T02:59:08.362Z,19.30
2022-09-28T03:01:50.774Z,19.29
2022-09-28T03:04:34.697Z,19.23
2022-09-28T03:07:15.040Z,19.19
2022-09-28T03:09:54.560Z,19.18
2022-09-28T03:12:24.802Z,19.18
2022-09-28T03:15:14.280Z,19.19
2022-09-28T03:17:42.586Z,19.17
2022-09-28T03:20:10.856Z,19.17
2022-09-28T03:22:38.626Z,19.18
2022-09-28T03:25:08.023Z,19.18
2022-09-28T03:27:38.925Z,19.18
2022-09-28T03:30:08.235Z,19.19
2022-09-28T03:32:36.066Z,19.21
2022-09-28T03:35:06.527Z,19.20
2022-09-28T03:37:33.905Z,19.20
2022-09-28T03:40:01.494Z,19.19
2022-09-28T03:42:28.994Z,19.15
2022-09-28T03:44:56.981Z,19.15
2022-09-28T03:47:24.297Z,19.12
2022-09-28T03:49:51.426Z,19.09
2022-09-28T03:52:18.560Z,19.03
2022-09-28T03:54:49.090Z,18.97
2022-09-28T03:57:16.824Z,18.91
2022-09-28T03:59:44.420Z,18.86
2022-09-28T04:02:11.602Z,18.77
2022-09-28T04:04:38.839Z,18.77
2022-09-28T04:07:06.087Z,18.82
2022-09-28T04:09:33.330Z,18.81
2022-09-28T04:12:04.280Z,18.87
2022-09-28T04:14:32.933Z,18.89
2022-09-28T04:17:00.112Z,18.92
2022-09-28T04:19:28.682Z,18.96
2022-09-28T04:22:16.422Z,19.01
2022-09-28T04:24:43.873Z,19.06
2022-09-28T04:27:29.193Z,19.10
2022-09-28T04:29:56.447Z,19.13
2022-09-28T04:32:23.692Z,19.12
2022-09-28T04:34:52.062Z,19.12
2022-09-28T04:37:19.335Z,19.08
2022-09-28T04:39:48.613Z,19.08
2022-09-28T04:42:19.291Z,19.09
2022-09-28T04:44:49.101Z,19.15
2022-09-28T04:47:16.979Z,19.23
2022-09-28T04:49:59.337Z,19.32
2022-09-28T04:52:32.379Z,19.37
2022-09-28T04:54:59.559Z,19.43
2022-09-28T04:57:26.909Z,19.59
2022-09-28T04:59:55.126Z,19.81
2022-09-28T05:02:22.336Z,20.07
2022-09-28T05:05:18.914Z,20.47
2022-09-28T05:08:07.106Z,20.85
2022-09-28T05:10:35.102Z,21.25
2022-09-28T05:13:02.740Z,21.82
2022-09-28T05:15:31.247Z,22.44
2022-09-28T05:17:58.676Z,22.88
2022-09-28T05:20:42.056Z,23.29
2022-09-28T05:23:12.956Z,23.59
2022-09-28T05:25:42.959Z,23.84
2022-09-28T05:28:26.389Z,24.15
2022-09-28T05:31:17.305Z,24.46
2022-09-28T05:34:10.586Z,24.99
2022-09-28T05:36:40.259Z,25.41
2022-09-28T05:39:07.697Z,25.92
2022-09-28T05:41:34.933Z,26.33
2022-09-28T05:44:02.308Z,26.69
2022-09-28T05:46:30.703Z,26.97
2022-09-28T05:49:00.685Z,27.45
2022-09-28T05:51:28.501Z,27.68
2022-09-28T05:53:56.413Z,27.66
2022-09-28T05:56:26.085Z,27.94
2022-09-28T05:58:53.353Z,28.40
2022-09-28T06:01:22.922Z,28.39
2022-09-28T06:03:50.285Z,28.46
2022-09-28T06:06:19.955Z,28.43
2022-09-28T06:08:48.725Z,28.01
2022-09-28T06:11:36.244Z,27.64
2022-09-28T06:14:09.848Z,27.64
2022-09-28T06:16:40.477Z,27.64
2022-09-28T06:19:12.485Z,27.77
2022-09-28T06:21:59.661Z,27.60
2022-09-28T06:24:27.742Z,27.55
2022-09-28T06:26:54.811Z,27.78
2022-09-28T06:29:22.984Z,27.90
2022-09-28T06:31:50.370Z,27.98
2022-09-28T06:34:19.277Z,27.43
2022-09-28T06:36:46.601Z,27.18
2022-09-28T06:39:14.145Z,27.96
2022-09-28T06:41:42.039Z,27.96
2022-09-28T06:44:15.397Z,28.23
2022-09-28T06:47:01.488Z,28.50
2022-09-28T06:49:41.509Z,28.95
2022-09-28T06:55:33.081Z,29.99
2022-09-28T06:58:05.342Z,30.07
2022-09-28T07:00:36.421Z,29.97
2022-09-28T07:03:08.625Z,29.59
2022-09-28T07:05:54.299Z,29.49
2022-09-28T07:08:49.466Z,29.00
2022-09-28T07:12:00.484Z,28.75
2022-09-28T07:14:47.732Z,28.77
2022-09-28T07:17:16.803Z,28.98
2022-09-28T07:19:44.716Z,29.19
2022-09-28T07:22:18.732Z,29.10
2022-09-28T07:24:48.511Z,29.02
2022-09-28T07:27:44.397Z,29.19
2022-09-28T07:30:33.583Z,29.26
2022-09-28T07:33:06.532Z,29.00
2022-09-28T07:35:53.670Z,29.11
2022-09-28T07:38:23.029Z,29.25
2022-09-28T07:41:08.851Z,28.99
2022-09-28T07:43:41.893Z,28.21
2022-09-28T07:46:13.428Z,28.23
2022-09-28T07:48:49.733Z,28.07
2022-09-28T07:51:24.797Z,27.51
2022-09-28T07:54:10.597Z,26.74
2022-09-28T07:56:50.860Z,26.35
2022-09-28T07:59:40.477Z,26.21
2022-09-28T08:02:41.137Z,26.06
2022-09-28T08:05:10.226Z,25.89
2022-09-28T08:07:38.500Z,25.74
2022-09-28T08:10:09.246Z,25.50
2022-09-28T08:12:59.186Z,25.36
2022-09-28T08:15:38.420Z,25.19
2022-09-28T08:18:15.194Z,25.39
2022-09-28T08:21:01.655Z,25.70
2022-09-28T08:23:28.970Z,25.73
2022-09-28T08:25:56.053Z,25.67
2022-09-28T08:28:25.311Z,25.53
2022-09-28T08:31:01.752Z,25.35
2022-09-28T08:33:31.869Z,25.17
2022-09-28T08:36:17.286Z,25.14
2022-09-28T08:39:03.837Z,25.22
2022-09-28T08:42:02.928Z,25.55
2022-09-28T08:45:08.326Z,25.59
2022-09-28T08:48:39.845Z,25.71
2022-09-28T08:51:33.860Z,25.63
2022-09-28T08:54:24.776Z,25.63
2022-09-28T08:56:55.950Z,25.94
2022-09-28T08:59:36.392Z,26.14
2022-09-28T09:02:20.207Z,26.19
2022-09-28T09:04:49.471Z,26.19
2022-09-28T09:07:34.262Z,26.25
2022-09-28T09:10:34.306Z,26.60
2022-09-28T09:13:13.108Z,26.52
2022-09-28T09:16:12.160Z,26.41
2022-09-28T09:19:39.585Z,26.48
2022-09-28T09:22:27.951Z,26.65
2022-09-28T09:25:21.073Z,26.71
2022-09-28T09:28:23.344Z,26.66
2022-09-28T09:31:20.705Z,26.71
2022-09-28T09:34:09.355Z,26.80
2022-09-28T09:37:18.040Z,26.84
2022-09-28T09:40:30.665Z,26.97
2022-09-28T09:43:47.209Z,27.07
2022-09-28T09:47:08.434Z,26.85
2022-09-28T09:50:10.427Z,27.23
2022-09-28T09:52:55.144Z,27.64
2022-09-28T09:55:33.134Z,27.55
2022-09-28T09:58:21.937Z,27.70
2022-09-28T10:00:59.777Z,27.48
2022-09-28T10:03:48.887Z,27.35
2022-09-28T10:06:27.606Z,27.66
2022-09-28T10:09:05.564Z,27.83
2022-09-28T10:11:50.335Z,27.77
2022-09-28T10:14:22.996Z,27.93
2022-09-28T10:17:02.789Z,28.04
2022-09-28T10:19:48.480Z,27.70
2022-09-28T10:22:34.455Z,27.77
2022-09-28T10:25:12.967Z,28.27
2022-09-28T10:27:46.277Z,28.18
2022-09-28T10:30:19.297Z,28.19
2022-09-28T10:32:49.128Z,28.20
2022-09-28T10:35:29.972Z,28.14
2022-09-28T10:38:06.419Z,28.27
2022-09-28T10:40:58.736Z,28.16
2022-09-28T10:43:52.059Z,27.88
2022-09-28T10:46:24.435Z,27.88
2022-09-28T10:49:18.446Z,27.82
2022-09-28T10:51:54.997Z,27.97
2022-09-28T10:54:28.495Z,28.14
2022-09-28T10:56:59.321Z,28.04
2022-09-28T10:59:52.620Z,28.31
2022-09-28T11:02:40.362Z,28.28
2022-09-28T11:05:27.248Z,28.23
2022-09-28T11:08:07.499Z,28.34
2022-09-28T11:10:43.001Z,28.51
2022-09-28T11:13:14.773Z,28.49
2022-09-28T11:15:47.716Z,28.46
2022-09-28T11:18:31.720Z,28.20
2022-09-28T11:21:15.908Z,27.94
2022-09-28T11:24:08.827Z,27.56
2022-09-28T11:26:43.910Z,27.49
2022-09-28T11:29:46.349Z,27.53
2022-09-28T11:32:44.696Z,27.78
2022-09-28T11:35:32.284Z,27.64
2022-09-28T11:38:32.287Z,27.68
2022-09-28T11:41:37.703Z,27.79
2022-09-28T11:44:25.432Z,27.63
2022-09-28T11:47:10.248Z,27.55
2022-09-28T11:49:59.097Z,27.90
2022-09-28T11:52:48.882Z,28.10
2022-09-28T11:55:22.269Z,28.33
2022-09-28T11:57:57.720Z,28.34
2022-09-28T12:00:25.778Z,28.49
2022-09-28T12:03:18.310Z,28.59
2022-09-28T12:05:52.300Z,28.79
2022-09-28T12:08:27.806Z,28.73
2022-09-28T12:11:19.664Z,28.94
2022-09-28T12:14:15.728Z,28.85
2022-09-28T12:17:08.493Z,28.66
2022-09-28T12:20:03.302Z,29.04
2022-09-28T12:22:37.512Z,29.05
2022-09-28T12:25:10.641Z,28.83
2022-09-28T12:27:57.185Z,28.65
2022-09-28T12:30:29.315Z,28.85
2022-09-28T12:33:05.840Z,28.75
2022-09-28T12:35:57.922Z,29.03
2022-09-28T12:39:17.635Z,28.94
2022-09-28T12:41:53.205Z,28.89
2022-09-28T12:44:39.292Z,29.12
2022-09-28T12:47:24.914Z,28.95
2022-09-28T12:53:26.614Z,29.15
2022-09-28T12:56:04.217Z,29.05
2022-09-28T12:59:01.752Z,29.05
2022-09-28T13:01:40.939Z,29.00
2022-09-28T13:04:26.601Z,29.14
2022-09-28T13:07:03.519Z,29.37
2022-09-28T13:10:05.245Z,28.96
2022-09-28T13:13:05.245Z,28.70
2022-09-28T13:16:08.035Z,28.66
2022-09-28T13:18:45.694Z,28.68
2022-09-28T13:21:18.760Z,28.45
2022-09-28T13:23:48.939Z,28.57
2022-09-28T13:26:37.174Z,28.63
2022-09-28T13:29:19.880Z,28.79
2022-09-28T13:31:51.817Z,28.80
2022-09-28T13:34:22.870Z,28.99
2022-09-28T13:37:09.236Z,28.69
2022-09-28T13:39:45.643Z,28.73
2022-09-28T13:42:32.001Z,28.89
2022-09-28T13:45:23.333Z,29.04
2022-09-28T13:48:12.434Z,28.86
2022-09-28T13:51:03.211Z,28.77
2022-09-28T13:54:13.181Z,28.80
2022-09-28T13:57:01.720Z,28.79
2022-09-28T13:59:30.722Z,28.77
2022-09-28T14:02:14.264Z,27.77
2022-09-28T14:04:55.392Z,27.40
2022-09-28T14:07:45.566Z,27.20
2022-09-28T14:10:52.016Z,26.92
2022-09-28T14:13:40.992Z,26.65
2022-09-28T14:16:24.670Z,26.61
2022-09-28T14:19:01.561Z,26.81
2022-09-28T14:22:03.120Z,26.88
2022-09-28T14:24:39.985Z,27.10
2022-09-28T14:27:35.826Z,27.13
2022-09-28T14:30:28.647Z,27.06
2022-09-28T14:32:58.827Z,26.59
2022-09-28T14:35:39.661Z,26.21
2022-09-28T14:38:31.911Z,25.97
2022-09-28T14:41:11.668Z,25.79
2022-09-28T14:43:45.209Z,25.76
2022-09-28T14:46:15.500Z,25.75
2022-09-28T14:48:53.730Z,25.58
2022-09-28T14:51:31.226Z,25.50
2022-09-28T14:54:03.361Z,25.50
2022-09-28T14:56:40.179Z,25.58
2022-09-28T14:59:17.568Z,25.61
2022-09-28T15:01:54.086Z,25.65
2022-09-28T15:04:23.764Z,25.80
2022-09-28T15:06:52.499Z,25.81
2022-09-28T15:09:28.919Z,25.79
2022-09-28T15:12:25.659Z,25.68
2022-09-28T15:15:01.610Z,25.56
2022-09-28T15:17:39.231Z,25.38
2022-09-28T15:20:26.325Z,25.16
2022-09-28T15:22:58.995Z,25.16
2022-09-28T15:25:29.013Z,25.20
2022-09-28T15:28:08.313Z,25.02
2022-09-28T15:30:36.785Z,25.03
2022-09-28T15:33:24.016Z,24.94
2022-09-28T15:36:01.943Z,24.84
2022-09-28T15:38:31.495Z,24.93
2022-09-28T15:41:02.903Z,24.89
2022-09-28T15:43:37.403Z,24.93
2022-09-28T15:46:18.603Z,24.84
2022-09-28T15:48:53.832Z,24.74
2022-09-28T15:51:22.477Z,24.64
2022-09-28T15:54:03.010Z,24.56
2022-09-28T15:56:31.269Z,24.56
2022-09-28T15:59:23.471Z,24.46
2022-09-28T16:02:09.877Z,24.42
2022-09-28T16:04:55.438Z,24.33
2022-09-28T16:07:55.840Z,24.26
2022-09-28T16:10:34.633Z,24.16
2022-09-28T16:13:15.723Z,24.09
2022-09-28T16:15:43.335Z,23.94
2022-09-28T16:18:20.471Z,23.86
2022-09-28T16:20:51.188Z,23.87
2022-09-28T16:23:31.362Z,23.86
2022-09-28T16:26:02.322Z,23.86
2022-09-28T16:28:45.971Z,23.84
2022-09-28T16:31:13.331Z,23.80
2022-09-28T16:33:46.946Z,23.73
2022-09-28T16:36:17.396Z,23.68
2022-09-28T16:38:45.781Z,23.70
2022-09-28T16:41:15.459Z,23.74
2022-09-28T16:43:42.614Z,23.72
2022-09-28T16:46:13.473Z,23.68
2022-09-28T16:48:49.012Z,23.63
2022-09-28T16:51:20.998Z,23.59
2022-09-28T16:54:07.305Z,23.53
2022-09-28T16:56:36.623Z,23.45
2022-09-28T16:59:04.890Z,23.40
2022-09-28T17:01:32.284Z,23.36
2022-09-28T17:03:59.468Z,23.33
2022-09-28T17:06:27.640Z,23.31
2022-09-28T17:08:58.601Z,23.27
2022-09-28T17:11:25.865Z,23.24
2022-09-28T17:13:57.025Z,23.22
2022-09-28T17:16:49.740Z,23.20
2022-09-28T17:19:24.962Z,23.16
2022-09-28T17:21:53.380Z,23.13
2022-09-28T17:24:21.144Z,23.12
2022-09-28T17:26:51.179Z,23.15
2022-09-28T17:29:19.311Z,23.14
2022-09-28T17:31:47.586Z,23.13
2022-09-28T17:34:20.156Z,23.11
2022-09-28T17:36:48.716Z,23.07
2022-09-28T17:39:22.182Z,23.03
2022-09-28T17:41:49.564Z,23.05
2022-09-28T17:44:16.845Z,23.02
2022-09-28T17:46:48.735Z,23.04
2022-09-28T17:49:17.558Z,23.04
2022-09-28T17:51:46.235Z,23.02
2022-09-28T17:54:13.894Z,23.00
2022-09-28T17:56:42.590Z,22.98
2022-09-28T17:59:19.179Z,23.02
2022-09-28T18:01:46.471Z,23.04
2022-09-28T18:04:50.234Z,23.07
2022-09-28T18:07:10.371Z,23.04
2022-09-28T18:09:37.615Z,23.01
2022-09-28T18:12:05.455Z,22.99
2022-09-28T18:14:32.598Z,23.00
2022-09-28T18:16:59.647Z,22.99
2022-09-28T18:19:31.778Z,22.93
2022-09-28T18:21:59.659Z,22.90
2022-09-28T18:24:26.814Z,22.89
2022-09-28T18:26:54.089Z,22.88
2022-09-28T18:29:21.109Z,22.86
2022-09-28T18:31:49.031Z,22.86
2022-09-28T18:34:16.288Z,22.85
2022-09-28T18:36:43.504Z,22.87
2022-09-28T18:39:10.590Z,22.91
2022-09-28T18:41:37.716Z,22.93
2022-09-28T18:44:04.926Z,22.91
2022-09-28T18:46:36.495Z,22.91
2022-09-28T18:49:04.847Z,22.88
2022-09-28T18:51:32.006Z,22.86
2022-09-28T18:54:02.267Z,22.85
2022-09-28T18:56:29.444Z,22.82
2022-09-28T18:58:58.560Z,22.80
2022-09-28T19:01:31.070Z,22.77
2022-09-28T19:04:00.799Z,22.75
2022-09-28T19:06:28.666Z,22.73
2022-09-28T19:08:56.464Z,22.73
2022-09-28T19:11:24.861Z,22.74
2022-09-28T19:13:53.726Z,22.74
2022-09-28T19:16:24.327Z,22.75
2022-09-28T19:18:53.884Z,22.76
2022-09-28T19:21:21.580Z,22.77
2022-09-28T19:23:50.156Z,22.75
2022-09-28T19:26:28.089Z,22.71
2022-09-28T19:28:59.151Z,22.73
2022-09-28T19:31:27.339Z,22.71
2022-09-28T19:33:54.599Z,22.70
2022-09-28T19:36:24.448Z,22.67
2022-09-28T19:38:55.768Z,22.65
2022-09-28T19:41:43.591Z,22.61
2022-09-28T19:44:24.894Z,22.56
2022-09-28T19:47:00.327Z,22.54
2022-09-28T19:49:28.297Z,22.52
2022-09-28T19:52:12.039Z,22.49
2022-09-28T19:54:41.772Z,22.49
2022-09-28T19:57:09.122Z,22.48
2022-09-28T19:59:37.582Z,22.45
2022-09-28T20:02:08.005Z,22.40
2022-09-28T20:04:35.334Z,22.37
2022-09-28T20:07:03.392Z,22.35
2022-09-28T20:09:30.619Z,22.31
2022-09-28T20:11:57.788Z,22.27
2022-09-28T20:14:26.429Z,22.23
2022-09-28T20:16:58.001Z,22.19
2022-09-28T20:19:25.094Z,22.14
2022-09-28T20:21:52.531Z,22.11
2022-09-28T20:24:19.620Z,22.08
2022-09-28T20:26:46.915Z,22.06
2022-09-28T20:29:14.207Z,22.02
2022-09-28T20:31:42.808Z,21.97
2022-09-28T20:34:10.283Z,21.92
2022-09-28T20:36:37.396Z,21.88
2022-09-28T20:39:05.023Z,21.83
2022-09-28T20:41:36.955Z,21.78
2022-09-28T20:44:06.530Z,21.77
2022-09-28T20:46:35.850Z,21.73
2022-09-28T20:49:05.069Z,21.70
2022-09-28T20:51:32.794Z,21.67
2022-09-28T20:54:00.147Z,21.63
2022-09-28T20:56:37.882Z,21.58
2022-09-28T20:59:08.261Z,21.53
2022-09-28T21:01:35.976Z,21.49
2022-09-28T21:04:05.148Z,21.47
2022-09-28T21:06:35.044Z,21.45
2022-09-28T21:09:02.941Z,21.43
2022-09-28T21:11:30.550Z,21.44
2022-09-28T21:14:00.041Z,21.42
2022-09-28T21:16:29.888Z,21.39
2022-09-28T21:18:57.500Z,21.33
2022-09-28T21:21:25.386Z,21.30
2022-09-28T21:23:57.023Z,21.28
2022-09-28T21:26:27.251Z,21.22
2022-09-28T21:28:55.842Z,21.18
2022-09-28T21:31:28.811Z,21.13
2022-09-28T21:33:58.015Z,21.10
2022-09-28T21:36:26.241Z,21.07
2022-09-28T21:38:55.345Z,21.02
2022-09-28T21:41:23.055Z,20.98
2022-09-28T21:43:50.313Z,20.99
2022-09-28T21:46:17.882Z,20.97
2022-09-28T21:48:45.200Z,20.95
2022-09-28T21:51:15.806Z,20.94
2022-09-28T21:53:43.239Z,20.98
2022-09-28T21:56:13.025Z,20.97
2022-09-28T21:58:40.945Z,20.95
2022-09-28T22:01:15.733Z,20.95
2022-09-28T22:03:45.096Z,20.95
2022-09-28T22:06:12.526Z,20.96
2022-09-28T22:08:40.248Z,20.98
2022-09-28T22:11:08.946Z,20.97
2022-09-28T22:13:46.642Z,20.97
2022-09-28T22:16:16.047Z,20.96
2022-09-28T22:18:44.021Z,20.95
2022-09-28T22:21:15.262Z,20.96
2022-09-28T22:23:43.023Z,20.96
2022-09-28T22:26:22.891Z,20.99
2022-09-28T22:28:55.806Z,20.98
2022-09-28T22:31:25.663Z,20.93
2022-09-28T22:33:53.371Z,20.90
2022-09-28T22:36:21.257Z,20.84
2022-09-28T22:38:49.161Z,20.78
2022-09-28T22:41:18.928Z,20.76
2022-09-28T22:43:46.184Z,20.72
2022-09-28T22:46:16.867Z,20.71
2022-09-28T22:48:48.901Z,20.68
2022-09-28T22:51:16.282Z,20.63
2022-09-28T22:53:43.989Z,20.57
2022-09-28T22:56:15.962Z,20.55
2022-09-28T22:58:45.590Z,20.53
2022-09-28T23:01:14.194Z,20.51
2022-09-28T23:03:42.742Z,20.51
2022-09-28T23:06:11.070Z,20.52
2022-09-28T23:08:39.345Z,20.47
2022-09-28T23:11:06.964Z,20.45
2022-09-28T23:13:35.301Z,20.42
2022-09-28T23:16:07.418Z,20.43
2022-09-28T23:18:37.021Z,20.41
2022-09-28T23:21:06.620Z,20.40
2022-09-28T23:23:34.560Z,20.38
2022-09-28T23:26:09.921Z,20.37
2022-09-28T23:28:37.220Z,20.37
2022-09-28T23:31:20.730Z,20.35
2022-09-28T23:33:48.380Z,20.34
2022-09-28T23:36:16.405Z,20.29
2022-09-28T23:38:44.105Z,20.27
2022-09-28T23:41:11.627Z,20.25
2022-09-28T23:43:38.864Z,20.21
2022-09-28T23:46:06.585Z,20.18
2022-09-28T23:48:34.643Z,20.15
2022-09-28T23:51:02.103Z,20.15
2022-09-28T23:53:29.571Z,20.14
2022-09-28T23:55:56.687Z,20.12
2022-09-28T23:58:24.415Z,20.11
